Skip Navigation Links
NOAA logo - Click to go to the NOAA homepage
NOAA's National Weather Service
Alaska Aviation Weather Unit
  NWS logo - Click to go to the NWS homepage
Left Navbar Graphic     21 AKDT = 05 GMT

   
NOAA is celebrating 200 years of science, service, and stewardship. Visit the NOAA 200th celebration Web site to learn more.
USA.gov is the U.S. Government's official Web portal to all Federal, state and local government Web resources and services.
Facebook
NWS on Facebook

Important Change Regarding the AAWU Web Presence

 

Over the last several months, the AAWU has been working to navigate its webpages to a nationally supported server. Security, as well as other needs, have necessitated the change.  In the process, we have made an effort to enhance the functionality of our website, as well as some of our products. As of June 27, 2017, aawu.arh.noaa.gov will be discontinued. The new AAWU web address is weather.gov/aawu. It is now live and will run in-parallel with the old site until it is discontinued. Please send any feedback or questions regarding the new webpages to nws.ar.aawu.webauthors@noaa.gov.  Thank you for your patience during this time of transition.
AAWU Home :: Display TAF Add Bookmark
TAF PAPG 260158Z 2602/2624 VRB03KT P6SM -SHRA FEW012 SCT030 OVC050
      TEMPO 2602/2604 6SM -SHRA BR SCT004 BKN025 OVC050
     FM260600 VRB03KT P6SM VCSH SCT025 OVC035
      AMD LTD TO CLD VIS AND WIND 2606/2615=
SPECI PAPG 252319Z 08003KT 10SM -RA FEW004 BKN030 OVC040 11/11 A3001 RMK
     AO2 P0003=

METAR PAPG 252356Z 06003KT 10SM -RA FEW004 BKN030 OVC050 11/10 A3001
 RMK AO2 SLP548 P0004 60011 T01060100 10117 20100 50001=

METAR PAPG 260056Z 00000KT 10SM -RA FEW008 SCT035 OVC050 12/10 A3000 RMK
     AO2 SLP546 P0000 T01170100=

METAR PAPG 260156Z 24003KT 10SM -RA FEW016 BKN028 OVC050 11/11 A3000
 RMK AO2 SLP544 P0002 T01110106=

SPECI PAPG 260236Z 00000KT 10SM -RA FEW012 BKN037 OVC055 11/11 A3000 RMK
     AO2 P0006=

METAR PAPG 260256Z 00000KT 10SM -RA FEW009 BKN037 OVC060 11/10 A3000 RMK
     AO2 SLP544 P0007 60009 T01110100 56004=

METAR PAPG 260356Z 00000KT 10SM -RA FEW003 BKN032 OVC060 11/11 A2999 RMK
     AO2 SLP542 P0001 T01060106=

METAR PAPG 260456Z 00000KT 10SM -RA FEW003 BKN029 OVC060 11/11 A2999 RMK
     AO2 SLP542 P0027 T01060106=


NOAA's National Weather Service
Alaska Aviation Weather Unit
6930 Sand Lake Road
Anchorage, AK 99502-1845
Disclaimer
Credits
Glossary
Privacy Policy
About Us
Career Opportunities
Contact AAWU Internet Services Site last modified: April, 17th 2012